createdAt,value
2019-03-23T00:00:56.561Z,102329.50
2019-03-23T00:05:48.422Z,102336.13
2019-03-23T00:10:40.470Z,102346.55
2019-03-23T00:15:32.437Z,102350.20
2019-03-23T00:20:24.497Z,102352.60
2019-03-23T00:25:16.441Z,102354.69
2019-03-23T00:30:08.471Z,102358.87
2019-03-23T00:35:00.337Z,102365.40
2019-03-23T00:39:52.396Z,102372.25
2019-03-23T00:44:42.097Z,102381.19
2019-03-23T00:49:34.176Z,102393.09
2019-03-23T00:54:26.336Z,102394.48
2019-03-23T00:59:18.135Z,102411.83
2019-03-23T01:04:10.478Z,102414.61
2019-03-23T01:08:59.761Z,102414.34
2019-03-23T01:13:51.880Z,102426.98
2019-03-23T01:18:41.577Z,102427.81
2019-03-23T01:23:33.926Z,102425.20
2019-03-23T01:28:25.064Z,102432.88
2019-03-23T01:33:15.342Z,102437.59
2019-03-23T01:38:04.619Z,102437.20
2019-03-23T01:42:56.449Z,102441.39
2019-03-23T01:47:46.136Z,102438.30
2019-03-23T01:52:36.477Z,102444.54
2019-03-23T01:57:28.225Z,102444.79
2019-03-23T02:02:20.247Z,102446.77
2019-03-23T02:07:18.270Z,102454.45
2019-03-23T02:12:07.662Z,102460.34
2019-03-23T02:16:58.519Z,102468.69
2019-03-23T02:21:50.035Z,102464.53
2019-03-23T02:26:41.029Z,102469.52
2019-03-23T02:31:31.870Z,102473.73
2019-03-23T02:36:24.381Z,102480.17
2019-03-23T02:41:15.437Z,102486.52
2019-03-23T02:46:07.524Z,102490.35
2019-03-23T02:50:59.285Z,102496.59
2019-03-23T02:55:51.169Z,102486.92
2019-03-23T03:00:43.042Z,102494.16
2019-03-23T03:05:35.139Z,102497.40
2019-03-23T03:10:27.292Z,102504.44
2019-03-23T03:15:20.243Z,102505.74
2019-03-23T03:20:12.035Z,102510.97
2019-03-23T03:25:04.028Z,102508.64
2019-03-23T03:29:56.101Z,102503.55
2019-03-23T03:34:48.162Z,102505.94
2019-03-23T03:39:39.983Z,102512.59
2019-03-23T03:44:32.011Z,102508.21
2019-03-23T03:49:24.032Z,102508.19
2019-03-23T03:54:15.949Z,102508.49
2019-03-23T03:59:08.029Z,102509.72
2019-03-23T04:04:02.104Z,102509.52
2019-03-23T04:08:53.770Z,102515.17
2019-03-23T04:13:45.726Z,102511.39
2019-03-23T04:18:37.562Z,102510.28
2019-03-23T04:23:31.723Z,102518.09
2019-03-23T04:28:23.196Z,102516.81
2019-03-23T04:33:14.695Z,102524.69
2019-03-23T04:38:06.859Z,102533.97
2019-03-23T04:42:58.887Z,102533.63
2019-03-23T04:47:51.057Z,102535.23
2019-03-23T04:52:42.721Z,102542.97
2019-03-23T04:57:34.716Z,102545.61
2019-03-23T05:02:26.820Z,102543.38
2019-03-23T05:07:26.402Z,102554.95
2019-03-23T05:12:16.996Z,102554.20
2019-03-23T05:17:08.871Z,102556.03
2019-03-23T05:22:00.605Z,102563.73
2019-03-23T05:26:50.064Z,102569.47
2019-03-23T05:31:39.783Z,102572.27
2019-03-23T05:36:31.514Z,102578.49
2019-03-23T05:41:22.914Z,102588.17
2019-03-23T05:46:10.176Z,102585.86
2019-03-23T05:50:59.865Z,102589.30
2019-03-23T05:55:52.030Z,102599.58
2019-03-23T06:00:44.136Z,102603.74
2019-03-23T06:05:35.690Z,102605.59
2019-03-23T06:10:42.290Z,102615.73
2019-03-23T06:15:31.487Z,102616.13
2019-03-23T06:20:20.436Z,102614.88
2019-03-23T06:25:12.147Z,102609.22
2019-03-23T06:30:04.220Z,102608.18
2019-03-23T06:34:56.517Z,102611.31
2019-03-23T06:39:47.465Z,102604.59
2019-03-23T06:44:37.526Z,102607.33
2019-03-23T06:49:27.150Z,102618.94
2019-03-23T06:54:20.471Z,102615.31
2019-03-23T06:59:10.329Z,102618.36
2019-03-23T07:04:00.290Z,102614.80
2019-03-23T07:08:54.319Z,102616.41
2019-03-23T07:13:45.889Z,102619.48
2019-03-23T07:18:36.642Z,102620.97
2019-03-23T07:23:29.317Z,102618.64
2019-03-23T07:28:21.375Z,102619.96
2019-03-23T07:33:13.413Z,102628.55
2019-03-23T07:38:04.887Z,102629.75
2019-03-23T07:42:56.727Z,102646.97
2019-03-23T07:47:48.834Z,102646.44
2019-03-23T07:52:40.927Z,102649.77
2019-03-23T07:57:33.011Z,102646.98
2019-03-23T08:02:24.926Z,102646.28
2019-03-23T08:07:16.781Z,102654.46
2019-03-23T08:12:09.080Z,102648.75
2019-03-23T08:17:00.952Z,102644.41
2019-03-23T08:21:52.867Z,102645.63
2019-03-23T08:26:44.802Z,102658.42
2019-03-23T08:31:36.937Z,102655.06
2019-03-23T08:36:28.907Z,102654.99
2019-03-23T08:41:20.962Z,102662.30
2019-03-23T08:46:13.110Z,102661.20
2019-03-23T08:51:04.930Z,102660.97
2019-03-23T08:55:56.980Z,102664.49
2019-03-23T09:00:48.783Z,102663.14
2019-03-23T09:05:40.764Z,102672.15
2019-03-23T09:10:33.047Z,102671.84
2019-03-23T09:15:24.993Z,102675.05
2019-03-23T09:20:17.792Z,102673.74
2019-03-23T09:25:09.854Z,102677.67
2019-03-23T09:30:02.037Z,102677.95
2019-03-23T09:34:54.289Z,102673.96
2019-03-23T09:39:46.360Z,102685.13
2019-03-23T09:44:38.335Z,102676.12
2019-03-23T09:49:30.630Z,102687.75
2019-03-23T09:54:24.692Z,102688.14
2019-03-23T09:59:16.269Z,102690.89
2019-03-23T10:04:08.504Z,102691.88
2019-03-23T10:09:00.746Z,102697.05
2019-03-23T10:13:52.917Z,102699.30
2019-03-23T10:18:45.147Z,102693.60
2019-03-23T10:23:37.359Z,102698.11
2019-03-23T10:28:29.591Z,102692.00
2019-03-23T10:33:21.799Z,102693.48
2019-03-23T10:38:14.056Z,102693.18
2019-03-23T10:43:06.359Z,102681.09
2019-03-23T10:47:58.823Z,102684.23
2019-03-23T10:52:51.259Z,102680.63
2019-03-23T10:57:43.469Z,102679.19
2019-03-23T11:02:36.002Z,102677.41
2019-03-23T11:07:28.506Z,102675.38
2019-03-23T11:12:20.499Z,102682.97
2019-03-23T11:17:12.352Z,102683.19
2019-03-23T11:22:06.492Z,102684.37
2019-03-23T11:26:58.060Z,102684.73
2019-03-23T11:31:49.859Z,102690.78
2019-03-23T11:36:41.826Z,102687.31
2019-03-23T11:41:33.923Z,102684.28
2019-03-23T11:46:26.032Z,102684.95
2019-03-23T11:51:18.544Z,102686.92
2019-03-23T11:56:10.778Z,102689.86
2019-03-23T12:01:02.978Z,102692.23
2019-03-23T12:05:54.827Z,102703.45
2019-03-23T12:10:46.682Z,102703.72
2019-03-23T12:15:38.615Z,102697.73
2019-03-23T12:20:30.966Z,102690.80
2019-03-23T12:25:23.067Z,102689.72
2019-03-23T12:30:15.350Z,102692.13
2019-03-23T12:35:08.326Z,102696.08
2019-03-23T12:40:00.317Z,102694.66
2019-03-23T12:44:52.701Z,102690.44
2019-03-23T12:49:45.081Z,102690.28
2019-03-23T12:54:36.951Z,102688.61
2019-03-23T12:59:29.155Z,102694.41
2019-03-23T13:04:21.393Z,102696.91
2019-03-23T13:09:13.768Z,102694.62
2019-03-23T13:14:05.854Z,102690.05
2019-03-23T13:18:58.143Z,102686.42
2019-03-23T13:23:50.205Z,102693.07
2019-03-23T13:28:42.313Z,102688.95
2019-03-23T13:33:34.494Z,102686.24
2019-03-23T13:38:26.568Z,102683.39
2019-03-23T13:43:18.778Z,102682.65
2019-03-23T13:48:11.098Z,102684.73
2019-03-23T13:53:03.228Z,102689.00
2019-03-23T13:57:55.345Z,102680.95
2019-03-23T14:02:47.409Z,102675.19
2019-03-23T14:07:39.790Z,102682.55
2019-03-23T14:12:31.971Z,102678.14
2019-03-23T14:17:24.119Z,102682.64
2019-03-23T14:22:18.342Z,102676.16
2019-03-23T14:27:10.573Z,102676.94
2019-03-23T14:32:02.550Z,102675.67
2019-03-23T14:36:54.540Z,102669.84
2019-03-23T14:41:49.185Z,102680.98
2019-03-23T14:46:40.734Z,102685.74
2019-03-23T14:51:32.753Z,102688.44
2019-03-23T14:56:25.213Z,102690.33
2019-03-23T15:01:18.466Z,102692.48
2019-03-23T15:06:10.117Z,102694.22
2019-03-23T15:11:02.298Z,102686.37
2019-03-23T15:15:54.337Z,102689.83
2019-03-23T15:20:46.503Z,102692.25
2019-03-23T15:25:40.756Z,102680.48
2019-03-23T15:30:32.325Z,102686.51
2019-03-23T15:35:26.325Z,102687.33
2019-03-23T15:40:18.254Z,102685.55
2019-03-23T15:45:12.400Z,102678.33
2019-03-23T15:50:06.067Z,102681.30
2019-03-23T15:54:57.793Z,102689.33
2019-03-23T15:59:49.892Z,102684.49
2019-03-23T16:04:42.000Z,102688.23
2019-03-23T16:09:34.384Z,102681.61
2019-03-23T16:14:26.546Z,102679.65
2019-03-23T16:19:18.865Z,102678.31
2019-03-23T16:24:11.073Z,102674.91
2019-03-23T16:29:03.077Z,102675.62
2019-03-23T16:33:55.162Z,102670.41
2019-03-23T16:38:47.393Z,102664.05
2019-03-23T16:43:40.438Z,102667.19
2019-03-23T16:48:32.487Z,102662.97
2019-03-23T16:53:26.773Z,102658.76
2019-03-23T16:58:18.703Z,102665.45
2019-03-23T17:03:10.817Z,102659.78
2019-03-23T17:08:02.943Z,102661.59
2019-03-23T17:12:57.234Z,102666.05
2019-03-23T17:17:48.796Z,102661.55
2019-03-23T17:22:40.625Z,102666.27
2019-03-23T17:27:33.055Z,102669.08
2019-03-23T17:32:25.008Z,102669.45
2019-03-23T17:37:17.366Z,102674.11
2019-03-23T17:42:09.954Z,102678.95
2019-03-23T17:47:02.154Z,102685.45
2019-03-23T17:51:56.824Z,102683.87
2019-03-23T17:56:48.368Z,102681.81
2019-03-23T18:01:40.209Z,102686.07
2019-03-23T18:06:32.017Z,102690.23
2019-03-23T18:11:24.314Z,102693.36
2019-03-23T18:16:16.616Z,102689.20
2019-03-23T18:21:08.720Z,102691.94
2019-03-23T18:26:00.805Z,102697.67
2019-03-23T18:30:54.921Z,102700.98
2019-03-23T18:35:46.211Z,102702.62
2019-03-23T18:40:38.441Z,102699.23
2019-03-23T18:45:30.494Z,102706.94
2019-03-23T18:50:22.640Z,102710.95
2019-03-23T18:55:14.736Z,102702.58
2019-03-23T19:00:06.812Z,102711.84
2019-03-23T19:04:59.193Z,102712.19
2019-03-23T19:09:51.269Z,102718.95
2019-03-23T19:14:43.240Z,102713.04
2019-03-23T19:19:36.140Z,102715.48
2019-03-23T19:24:28.256Z,102720.30
2019-03-23T19:29:20.152Z,102725.65
2019-03-23T19:34:12.386Z,102724.06
2019-03-23T19:39:04.173Z,102723.17
2019-03-23T19:43:56.205Z,102731.45
2019-03-23T19:48:48.528Z,102730.67
2019-03-23T19:53:40.514Z,102734.02
2019-03-23T19:58:32.648Z,102727.01
2019-03-23T20:03:24.728Z,102731.73
2019-03-23T20:08:16.760Z,102743.75
2019-03-23T20:13:08.905Z,102740.83
2019-03-23T20:18:01.050Z,102737.88
2019-03-23T20:22:54.275Z,102739.06
2019-03-23T20:27:46.526Z,102738.16
2019-03-23T20:32:38.289Z,102731.48
2019-03-23T20:37:30.260Z,102724.19
2019-03-23T20:42:22.489Z,102725.94
2019-03-23T20:47:14.486Z,102728.02
2019-03-23T20:52:06.310Z,102726.84
2019-03-23T20:56:58.345Z,102723.09
2019-03-23T21:01:50.767Z,102718.63
2019-03-23T21:06:42.672Z,102718.84
2019-03-23T21:11:36.710Z,102718.37
2019-03-23T21:16:28.258Z,102710.33
2019-03-23T21:21:20.399Z,102701.67
2019-03-23T21:26:12.537Z,102701.54
2019-03-23T21:31:04.369Z,102696.70
2019-03-23T21:35:56.330Z,102690.98
2019-03-23T21:40:48.447Z,102685.69
2019-03-23T21:45:40.743Z,102689.81
2019-03-23T21:50:32.720Z,102682.73
2019-03-23T21:55:24.809Z,102687.33
2019-03-23T22:00:16.913Z,102689.50
2019-03-23T22:05:09.195Z,102683.36
2019-03-23T22:10:03.302Z,102686.58
2019-03-23T22:14:55.193Z,102682.70
2019-03-23T22:19:47.196Z,102678.67
2019-03-23T22:24:39.452Z,102678.14
2019-03-23T22:29:33.460Z,102674.95
2019-03-23T22:34:27.202Z,102675.61
2019-03-23T22:39:19.086Z,102675.31
2019-03-23T22:44:11.246Z,102669.05
2019-03-23T22:49:04.144Z,102661.86
2019-03-23T22:53:57.275Z,102654.51
2019-03-23T22:58:52.038Z,102649.61
2019-03-23T23:03:43.785Z,102645.94
2019-03-23T23:08:38.261Z,102651.05
2019-03-23T23:13:29.759Z,102647.20
2019-03-23T23:18:22.148Z,102640.19
2019-03-23T23:23:13.898Z,102641.58
2019-03-23T23:28:05.886Z,102637.66
2019-03-23T23:32:58.018Z,102642.23
2019-03-23T23:37:50.094Z,102639.09
2019-03-23T23:42:42.124Z,102638.99
2019-03-23T23:47:34.249Z,102639.13
2019-03-23T23:52:26.425Z,102632.64
2019-03-23T23:57:18.594Z,102627.39
